Observation Tools

Loblolly pine Photo courtesy of Steve Baskauf, Vanderbilt University, bioimages.vanderbilt.edu.

Loblolly pine (Pinus taeda)


Plant Family: Pine (Pinaceae)
Project BudBurst Plant Group: Conifers

Identification Hints: Loblolly pines are common trees in the southeastern United States and are sometimes referred to assouthern yellow pines. Loblolly means "low, wet place," however you can find these trees in uplands as well as lowlands. These trees can grow to 115 feet in height. An interesting feature of Loblolly pines is that they often retain their needles for up to two years.

Did you Know? Loblolly pines are often used in plantation forestry as they are valued as timber and pulpwood. Loblolly pines don't begin to produce cones until they are about 12 to 18 years old. They produce 3-5 times as many seeds when they are 40 year old trees as when they are 25 year old trees.


Live Map for Loblolly pine

Other years available for viewing:

Below you can view all observations that have been reported in for Loblolly pine (If the map below is empty then there have not been any observations reported.)

Use the navigation buttons on the left to zoom in/out and pan around. Click on each place marker to get detail information about that observation.

Leaf/Needles/Stalk = Leaf/Needles/Stalk Flower = Flower Pollen = Pollen Fruiting = Fruiting Color = Color

--Back to Top--

close help window button

The table below displays all the data that has been submitted to Project BudBurst. By default, the data is sorted by the date on which the phenophase occurred. Clicking the up and down arrows next to each column name allows you to sort on any value. If there have been more than 10 observations submitted, you can choose how many to display at a time using the "Show __ entries" control. You can also page through the data using the previous and next buttons at the bottom right of the table.

The Search box allows you to search all of the data. Searching by date, species, phenophase, etc. is easy—just start typing and the table will immediately change to contain only observations that contain your search phrase. Do you want to see only 2012 observations? Just type "2012" in the search box. Only want to see maples? Enter "Acer." You can combine searches, too! Searching for "acer 2012" will narrow your results to only the maples that were observed in 2012 (assuming that any observations exist, of course).

Once you have your results in the order desired, you can use any of the buttons above the search box to copy the results to the clipboard; save them as a text, or spreadsheet; or even print them from your browser!

Observational data for Loblolly pine:

help button
Date Contributor Common Name Species Phenophase Latitude Longitude Obs#
Tue Mar 12 00:00:00 GMT 2013 kacheck_Salisbury_University_reporter3 Loblolly pine Pinus taeda First Needles 38.347800000000000 -75.603400000000000 18123
Sat Apr 20 00:00:00 GMT 2013 ncmns Loblolly pine Pinus taeda First Needles 35.780500000000000 -78.639000000000000 19396
Tue Nov 05 00:00:00 GMT 2013 cowell15r Loblolly pine Pinus taeda Fruit (Middle) 34.737100000000000 -76.760100000000000 22967
Wed Mar 26 00:00:00 GMT 2014 lizpizza Loblolly pine Pinus taeda First Needles (None) 38.784400000000000 -77.437000000000000 27555
Wed Mar 26 00:00:00 GMT 2014 lizpizza Loblolly pine Pinus taeda Pollen (None) 38.784400000000000 -77.437000000000000 27556
Wed Mar 26 00:00:00 GMT 2014 lizpizza Loblolly pine Pinus taeda Fruit (None) 38.784400000000000 -77.437000000000000 27557
Fri May 02 00:00:00 GMT 2014 lafave Loblolly pine Pinus taeda First Needles 35.096530000000000 -81.183130000000000 31728
Fri May 02 00:00:00 GMT 2014 lafave Loblolly pine Pinus taeda Pollen (None) 35.096530000000000 -81.183130000000000 31729
Fri May 02 00:00:00 GMT 2014 lafave Loblolly pine Pinus taeda Fruit (None) 35.096530000000000 -81.183130000000000 31730
Sun Jul 06 00:00:00 GMT 2014 MLoose Loblolly pine Pinus taeda Full Fruiting 38.023100000000000 -78.357900000000000 36112
Mon Sep 29 00:00:00 GMT 2014 lelder0008 Loblolly pine Pinus taeda First Needles (None) 37.401085000000000 -87.965362000000000 36382
Mon Sep 29 00:00:00 GMT 2014 lelder0008 Loblolly pine Pinus taeda Pollen (None) 37.401085000000000 -87.965362000000000 36383
Mon Sep 29 00:00:00 GMT 2014 lelder0008 Loblolly pine Pinus taeda Fruit (None) 37.401085000000000 -87.965362000000000 36384
Wed Oct 08 00:00:00 GMT 2014 lelder0008 Loblolly pine Pinus taeda First Needles (None) 37.401358000000000 -87.965147000000000 36385
Wed Oct 08 00:00:00 GMT 2014 lelder0008 Loblolly pine Pinus taeda Pollen (Middle) 37.401358000000000 -87.965147000000000 36386
Wed Oct 08 00:00:00 GMT 2014 lelder0008 Loblolly pine Pinus taeda Fruit (Middle) 37.401358000000000 -87.965147000000000 36387
Mon Sep 29 00:00:00 GMT 2014 lelder0008 Loblolly pine Pinus taeda First Needles (None) 37.401153000000000 -87.965748000000000 36388
Mon Sep 29 00:00:00 GMT 2014 lelder0008 Loblolly pine Pinus taeda Pollen (Middle) 37.401153000000000 -87.965748000000000 36389
Mon Sep 29 00:00:00 GMT 2014 lelder0008 Loblolly pine Pinus taeda Fruit (Late) 37.401153000000000 -87.965748000000000 36390
Fri Feb 13 00:00:00 GMT 2015 AndrewBurnes Loblolly pine Pinus taeda First Needles 33.833421000000000 -84.303546000000000 43751
Sat Mar 21 00:00:00 GMT 2015 scienceclub Loblolly pine Pinus taeda First Needles 40.000000000000000 -100.000000000000000 45228
Sat Mar 21 00:00:00 GMT 2015 scienceclub Loblolly pine Pinus taeda Pollen (Early) 40.000000000000000 -100.000000000000000 45229
Sat Mar 21 00:00:00 GMT 2015 scienceclub Loblolly pine Pinus taeda Fruit (None) 40.000000000000000 -100.000000000000000 45230
Fri Mar 27 00:00:00 GMT 2015 AndrewBurnes Loblolly pine Pinus taeda First Pollen 33.833421000000000 -84.303546000000000 45415
Wed Jul 08 00:00:00 GMT 2015 NationalAquarium Loblolly pine Pinus taeda First Needles 39.285720000000000 -76.608290000000000 51728
Wed Jul 08 00:00:00 GMT 2015 NationalAquarium Loblolly pine Pinus taeda Pollen (None) 39.285720000000000 -76.608290000000000 51729
Wed Jul 08 00:00:00 GMT 2015 NationalAquarium Loblolly pine Pinus taeda Fruit (Late) 39.285720000000000 -76.608290000000000 51730
Thu Jul 16 00:00:00 GMT 2015 NationalAquarium Loblolly pine Pinus taeda First Needles 39.284600000000000 -76.607010000000000 51995
Thu Jul 16 00:00:00 GMT 2015 NationalAquarium Loblolly pine Pinus taeda Pollen (Early) 39.284600000000000 -76.607010000000000 51996
Thu Jul 16 00:00:00 GMT 2015 NationalAquarium Loblolly pine Pinus taeda Fruit (Middle) 39.284600000000000 -76.607010000000000 51997
Mon Jul 27 00:00:00 GMT 2015 NationalAquarium Loblolly pine Pinus taeda First Needles 39.284600000000000 -76.607010000000000 51963
Mon Jul 27 00:00:00 GMT 2015 NationalAquarium Loblolly pine Pinus taeda Pollen (None) 39.284600000000000 -76.607010000000000 51964
Mon Jul 27 00:00:00 GMT 2015 NationalAquarium Loblolly pine Pinus taeda Fruit (None) 39.284600000000000 -76.607010000000000 51965
Tue Jul 28 00:00:00 GMT 2015 NationalAquarium Loblolly pine Pinus taeda First Needles 39.284600000000000 -76.607010000000000 52162
Tue Jul 28 00:00:00 GMT 2015 NationalAquarium Loblolly pine Pinus taeda Pollen (None) 39.284600000000000 -76.607010000000000 52163
Tue Jul 28 00:00:00 GMT 2015 NationalAquarium Loblolly pine Pinus taeda Fruit (Middle) 39.284600000000000 -76.607010000000000 52164
Tue Oct 13 00:00:00 GMT 2015 mollyewells Loblolly pine Pinus taeda First Needles (None) 35.611674000000000 -77.350450000000000 54524
Tue Oct 13 00:00:00 GMT 2015 mollyewells Loblolly pine Pinus taeda Pollen (None) 35.611674000000000 -77.350450000000000 54525
Tue Oct 13 00:00:00 GMT 2015 mollyewells Loblolly pine Pinus taeda Fruit (Middle) 35.611674000000000 -77.350450000000000 54526
Mon Nov 02 00:00:00 GMT 2015 AlanaVargas Loblolly pine Pinus taeda First Needles (None) 44.698100000000000 -73.631530000000000 55310
Mon Nov 02 00:00:00 GMT 2015 AlanaVargas Loblolly pine Pinus taeda Pollen (None) 44.698100000000000 -73.631530000000000 55311
Mon Nov 02 00:00:00 GMT 2015 AlanaVargas Loblolly pine Pinus taeda Fruit (None) 44.698100000000000 -73.631530000000000 55312
Sun Nov 01 00:00:00 GMT 2015 rshuman Loblolly pine Pinus taeda First Needles (None) 44.727670000000000 -73.669590000000000 56381
Sun Nov 01 00:00:00 GMT 2015 rshuman Loblolly pine Pinus taeda Pollen (None) 44.727670000000000 -73.669590000000000 56382
Sun Nov 01 00:00:00 GMT 2015 rshuman Loblolly pine Pinus taeda Fruit (None) 44.727670000000000 -73.669590000000000 56383
Mon Sep 28 00:00:00 GMT 2015 robinv1_Washington_College_reporter45 Loblolly pine Pinus taeda First Needles (None) 39.218870000000000 -76.069000000000000 57712
Mon Sep 28 00:00:00 GMT 2015 robinv1_Washington_College_reporter45 Loblolly pine Pinus taeda Pollen (None) 39.218870000000000 -76.069000000000000 57713
Mon Sep 28 00:00:00 GMT 2015 robinv1_Washington_College_reporter45 Loblolly pine Pinus taeda Fruit (None) 39.218870000000000 -76.069000000000000 57714
Thu Oct 15 00:00:00 GMT 2015 robinv1_Washington_College_reporter45 Loblolly pine Pinus taeda First Needles (None) 39.218870000000000 -76.069000000000000 57715
Thu Oct 15 00:00:00 GMT 2015 robinv1_Washington_College_reporter45 Loblolly pine Pinus taeda Pollen (None) 39.218870000000000 -76.069000000000000 57716
Thu Oct 15 00:00:00 GMT 2015 robinv1_Washington_College_reporter45 Loblolly pine Pinus taeda Fruit (None) 39.218870000000000 -76.069000000000000 57717
Mon Sep 28 00:00:00 GMT 2015 robinv1_Washington_College_reporter36 Loblolly pine Pinus taeda First Needles 39.207410000000000 -76.108800000000000 57845
Mon Sep 28 00:00:00 GMT 2015 robinv1_Washington_College_reporter36 Loblolly pine Pinus taeda Pollen (None) 39.207410000000000 -76.108800000000000 57846
Mon Sep 28 00:00:00 GMT 2015 robinv1_Washington_College_reporter36 Loblolly pine Pinus taeda Fruit (None) 39.207410000000000 -76.108800000000000 57847
Mon Oct 26 00:00:00 GMT 2015 robinv1_Washington_College_reporter36 Loblolly pine Pinus taeda First Needles 39.207410000000000 -76.108800000000000 57857
Mon Oct 26 00:00:00 GMT 2015 robinv1_Washington_College_reporter36 Loblolly pine Pinus taeda Pollen (None) 39.207410000000000 -76.108800000000000 57858
Mon Oct 26 00:00:00 GMT 2015 robinv1_Washington_College_reporter36 Loblolly pine Pinus taeda Fruit (None) 39.207410000000000 -76.108800000000000 57859
Mon Oct 19 00:00:00 GMT 2015 robinv1_Washington_College_reporter36 Loblolly pine Pinus taeda First Needles 39.207410000000000 -76.108800000000000 57854
Mon Oct 19 00:00:00 GMT 2015 robinv1_Washington_College_reporter36 Loblolly pine Pinus taeda Pollen (None) 39.207410000000000 -76.108800000000000 57855
Mon Oct 19 00:00:00 GMT 2015 robinv1_Washington_College_reporter36 Loblolly pine Pinus taeda Fruit (None) 39.207410000000000 -76.108800000000000 57856
Mon Nov 30 00:00:00 GMT 2015 robinv1_Washington_College_reporter36 Loblolly pine Pinus taeda First Needles 39.207410000000000 -76.108800000000000 57866
Mon Nov 30 00:00:00 GMT 2015 robinv1_Washington_College_reporter36 Loblolly pine Pinus taeda Pollen (None) 39.207410000000000 -76.108800000000000 57867
Mon Nov 30 00:00:00 GMT 2015 robinv1_Washington_College_reporter36 Loblolly pine Pinus taeda Fruit (None) 39.207410000000000 -76.108800000000000 57868
Mon Oct 12 00:00:00 GMT 2015 robinv1_Washington_College_reporter36 Loblolly pine Pinus taeda First Needles 39.207410000000000 -76.108800000000000 57851
Mon Oct 12 00:00:00 GMT 2015 robinv1_Washington_College_reporter36 Loblolly pine Pinus taeda Pollen (None) 39.207410000000000 -76.108800000000000 57852
Mon Oct 12 00:00:00 GMT 2015 robinv1_Washington_College_reporter36 Loblolly pine Pinus taeda Fruit (None) 39.207410000000000 -76.108800000000000 57853
Mon Nov 09 00:00:00 GMT 2015 robinv1_Washington_College_reporter36 Loblolly pine Pinus taeda First Needles 39.207410000000000 -76.108800000000000 57863
Mon Nov 09 00:00:00 GMT 2015 robinv1_Washington_College_reporter36 Loblolly pine Pinus taeda Pollen (None) 39.207410000000000 -76.108800000000000 57864
Mon Nov 09 00:00:00 GMT 2015 robinv1_Washington_College_reporter36 Loblolly pine Pinus taeda Fruit (None) 39.207410000000000 -76.108800000000000 57865
Mon Oct 05 00:00:00 GMT 2015 robinv1_Washington_College_reporter36 Loblolly pine Pinus taeda First Needles 39.207410000000000 -76.108800000000000 57848
Mon Oct 05 00:00:00 GMT 2015 robinv1_Washington_College_reporter36 Loblolly pine Pinus taeda Pollen (None) 39.207410000000000 -76.108800000000000 57849
Mon Oct 05 00:00:00 GMT 2015 robinv1_Washington_College_reporter36 Loblolly pine Pinus taeda Fruit (None) 39.207410000000000 -76.108800000000000 57850
Mon Nov 02 00:00:00 GMT 2015 robinv1_Washington_College_reporter36 Loblolly pine Pinus taeda First Needles 39.207410000000000 -76.108800000000000 57860
Mon Nov 02 00:00:00 GMT 2015 robinv1_Washington_College_reporter36 Loblolly pine Pinus taeda Pollen (None) 39.207410000000000 -76.108800000000000 57861
Mon Nov 02 00:00:00 GMT 2015 robinv1_Washington_College_reporter36 Loblolly pine Pinus taeda Fruit (None) 39.207410000000000 -76.108800000000000 57862
Mon Oct 05 00:00:00 GMT 2015 robinv1_Washington_College_reporter55 Loblolly pine Pinus taeda First Needles (None) 39.217300000000000 -76.068650000000000 57948
Mon Oct 05 00:00:00 GMT 2015 robinv1_Washington_College_reporter55 Loblolly pine Pinus taeda Pollen (None) 39.217300000000000 -76.068650000000000 57949
Mon Oct 05 00:00:00 GMT 2015 robinv1_Washington_College_reporter55 Loblolly pine Pinus taeda Fruit (None) 39.217300000000000 -76.068650000000000 57950
Mon Sep 28 00:00:00 GMT 2015 robinv1_Washington_College_reporter55 Loblolly pine Pinus taeda First Needles (None) 39.217300000000000 -76.068650000000000 57945
Mon Sep 28 00:00:00 GMT 2015 robinv1_Washington_College_reporter55 Loblolly pine Pinus taeda Pollen (None) 39.217300000000000 -76.068650000000000 57946
Mon Sep 28 00:00:00 GMT 2015 robinv1_Washington_College_reporter55 Loblolly pine Pinus taeda Fruit (None) 39.217300000000000 -76.068650000000000 57947
Mon Oct 19 00:00:00 GMT 2015 robinv1_Washington_College_reporter55 Loblolly pine Pinus taeda First Needles (None) 39.217300000000000 -76.068650000000000 57954
Mon Oct 19 00:00:00 GMT 2015 robinv1_Washington_College_reporter55 Loblolly pine Pinus taeda Pollen (Middle) 39.217300000000000 -76.068650000000000 57955
Mon Oct 19 00:00:00 GMT 2015 robinv1_Washington_College_reporter55 Loblolly pine Pinus taeda Fruit (None) 39.217300000000000 -76.068650000000000 57956
Mon Oct 12 00:00:00 GMT 2015 robinv1_Washington_College_reporter55 Loblolly pine Pinus taeda First Needles (None) 39.217300000000000 -76.068650000000000 57951
Mon Oct 12 00:00:00 GMT 2015 robinv1_Washington_College_reporter55 Loblolly pine Pinus taeda Pollen (Middle) 39.217300000000000 -76.068650000000000 57952
Mon Oct 12 00:00:00 GMT 2015 robinv1_Washington_College_reporter55 Loblolly pine Pinus taeda Fruit (None) 39.217300000000000 -76.068650000000000 57953
Mon Nov 30 00:00:00 GMT 2015 robinv1_Washington_College_reporter55 Loblolly pine Pinus taeda First Needles (None) 39.217300000000000 -76.068650000000000 57966
Mon Nov 30 00:00:00 GMT 2015 robinv1_Washington_College_reporter55 Loblolly pine Pinus taeda Pollen (Middle) 39.217300000000000 -76.068650000000000 57967
Mon Nov 02 00:00:00 GMT 2015 robinv1_Washington_College_reporter55 Loblolly pine Pinus taeda First Needles (None) 39.217300000000000 -76.068650000000000 57960
Mon Nov 02 00:00:00 GMT 2015 robinv1_Washington_College_reporter55 Loblolly pine Pinus taeda Pollen (Middle) 39.217300000000000 -76.068650000000000 57961
Mon Nov 02 00:00:00 GMT 2015 robinv1_Washington_College_reporter55 Loblolly pine Pinus taeda Fruit (None) 39.217300000000000 -76.068650000000000 57962
Mon Nov 30 00:00:00 GMT 2015 robinv1_Washington_College_reporter55 Loblolly pine Pinus taeda Fruit (None) 39.217300000000000 -76.068650000000000 57968
Mon Oct 26 00:00:00 GMT 2015 robinv1_Washington_College_reporter55 Loblolly pine Pinus taeda First Needles (None) 39.217300000000000 -76.068650000000000 57957
Mon Oct 26 00:00:00 GMT 2015 robinv1_Washington_College_reporter55 Loblolly pine Pinus taeda Pollen (Middle) 39.217300000000000 -76.068650000000000 57958
Mon Oct 26 00:00:00 GMT 2015 robinv1_Washington_College_reporter55 Loblolly pine Pinus taeda Fruit (None) 39.217300000000000 -76.068650000000000 57959
Mon Nov 09 00:00:00 GMT 2015 robinv1_Washington_College_reporter55 Loblolly pine Pinus taeda First Needles (None) 39.217300000000000 -76.068650000000000 57963
Mon Nov 09 00:00:00 GMT 2015 robinv1_Washington_College_reporter55 Loblolly pine Pinus taeda Pollen (Middle) 39.217300000000000 -76.068650000000000 57964
Mon Nov 09 00:00:00 GMT 2015 robinv1_Washington_College_reporter55 Loblolly pine Pinus taeda Fruit (None) 39.217300000000000 -76.068650000000000 57965
Mon Oct 12 00:00:00 GMT 2015 robinv1_Washington_College_reporter45 Loblolly pine Pinus taeda First Needles (None) 39.218870000000000 -76.069000000000000 59169
Mon Oct 12 00:00:00 GMT 2015 robinv1_Washington_College_reporter45 Loblolly pine Pinus taeda Pollen (None) 39.218870000000000 -76.069000000000000 59170
Mon Oct 12 00:00:00 GMT 2015 robinv1_Washington_College_reporter45 Loblolly pine Pinus taeda Fruit (Early) 39.218870000000000 -76.069000000000000 59171
Mon Oct 19 00:00:00 GMT 2015 robinv1_Washington_College_reporter45 Loblolly pine Pinus taeda First Needles (None) 39.218870000000000 -76.069000000000000 59187
Mon Oct 19 00:00:00 GMT 2015 robinv1_Washington_College_reporter45 Loblolly pine Pinus taeda Pollen (Early) 39.218870000000000 -76.069000000000000 59188
Mon Oct 19 00:00:00 GMT 2015 robinv1_Washington_College_reporter45 Loblolly pine Pinus taeda Fruit (Early) 39.218870000000000 -76.069000000000000 59189
Thu Oct 29 00:00:00 GMT 2015 robinv1_Washington_College_reporter45 Loblolly pine Pinus taeda First Needles (None) 39.218870000000000 -76.069000000000000 59200
Thu Oct 29 00:00:00 GMT 2015 robinv1_Washington_College_reporter45 Loblolly pine Pinus taeda Pollen (Early) 39.218870000000000 -76.069000000000000 59201
Thu Oct 29 00:00:00 GMT 2015 robinv1_Washington_College_reporter45 Loblolly pine Pinus taeda Fruit (Middle) 39.218870000000000 -76.069000000000000 59202
Mon Nov 02 00:00:00 GMT 2015 robinv1_Washington_College_reporter45 Loblolly pine Pinus taeda First Needles (None) 39.218870000000000 -76.069000000000000 59203
Mon Nov 02 00:00:00 GMT 2015 robinv1_Washington_College_reporter45 Loblolly pine Pinus taeda Pollen (Middle) 39.218870000000000 -76.069000000000000 59204
Mon Nov 02 00:00:00 GMT 2015 robinv1_Washington_College_reporter45 Loblolly pine Pinus taeda Fruit (Middle) 39.218870000000000 -76.069000000000000 59205
Mon Nov 09 00:00:00 GMT 2015 robinv1_Washington_College_reporter45 Loblolly pine Pinus taeda First Needles (None) 39.218870000000000 -76.069000000000000 59206
Mon Nov 09 00:00:00 GMT 2015 robinv1_Washington_College_reporter45 Loblolly pine Pinus taeda Pollen (Middle) 39.218870000000000 -76.069000000000000 59207
Mon Nov 09 00:00:00 GMT 2015 robinv1_Washington_College_reporter45 Loblolly pine Pinus taeda Fruit (Middle) 39.218870000000000 -76.069000000000000 59208
Sun Dec 06 00:00:00 GMT 2015 robinv1_Washington_College_reporter45 Loblolly pine Pinus taeda First Needles (None) 39.218870000000000 -76.069000000000000 60721
Sun Dec 06 00:00:00 GMT 2015 robinv1_Washington_College_reporter45 Loblolly pine Pinus taeda Pollen (Middle) 39.218870000000000 -76.069000000000000 60722
Sun Dec 06 00:00:00 GMT 2015 robinv1_Washington_College_reporter45 Loblolly pine Pinus taeda Fruit (Middle) 39.218870000000000 -76.069000000000000 60723
Sun Mar 12 00:00:00 GMT 2017 burnsky Loblolly pine Pinus taeda First Needles (None) 34.315290000000000 -92.294880000000000 75449
Sun Mar 12 00:00:00 GMT 2017 burnsky Loblolly pine Pinus taeda Pollen (Early) 34.315290000000000 -92.294880000000000 75450
Sun Mar 12 00:00:00 GMT 2017 burnsky Loblolly pine Pinus taeda Fruit (None) 34.315290000000000 -92.294880000000000 75451

*All downloadable materials require the free Adobe Reader.